sensor_id;sensor_type;location;lat;lon;timestamp;temperature;humidity
26037;DHT22;13810;48.376;10.944;2022-09-09T00:00:19;11.90;99.90
26037;DHT22;13810;48.376;10.944;2022-09-09T00:01:00;11.90;99.90
26037;DHT22;13810;48.376;10.944;2022-09-09T00:01:51;11.90;99.90
26037;DHT22;13810;48.376;10.944;2022-09-09T00:02:27;11.90;99.90
26037;DHT22;13810;48.376;10.944;2022-09-09T00:03:54;11.90;99.90
26037;DHT22;13810;48.376;10.944;2022-09-09T00:05:14;11.90;99.90
26037;DHT22;13810;48.376;10.944;2022-09-09T00:05:59;11.90;99.90
26037;DHT22;13810;48.376;10.944;2022-09-09T00:07:39;11.90;99.90
26037;DHT22;13810;48.376;10.944;2022-09-09T00:08:27;11.90;99.90
26037;DHT22;13810;48.376;10.944;2022-09-09T00:09:10;11.80;99.90
26037;DHT22;13810;48.376;10.944;2022-09-09T00:09:45;11.80;99.90
26037;DHT22;13810;48.376;10.944;2022-09-09T00:10:30;11.80;99.90
26037;DHT22;13810;48.376;10.944;2022-09-09T00:11:03;11.80;99.90
26037;DHT22;13810;48.376;10.944;2022-09-09T00:11:48;11.80;99.90
26037;DHT22;13810;48.376;10.944;2022-09-09T00:13:28;11.80;99.90
26037;DHT22;13810;48.376;10.944;2022-09-09T00:14:11;11.80;99.90
26037;DHT22;13810;48.376;10.944;2022-09-09T00:14:54;11.80;99.90
26037;DHT22;13810;48.376;10.944;2022-09-09T00:15:33;11.80;99.90
26037;DHT22;13810;48.376;10.944;2022-09-09T00:16:27;11.80;99.90
26037;DHT22;13810;48.376;10.944;2022-09-09T00:17:02;11.80;99.90
26037;DHT22;13810;48.376;10.944;2022-09-09T00:19:29;11.80;99.90
26037;DHT22;13810;48.376;10.944;2022-09-09T00:20:35;11.80;99.90
26037;DHT22;13810;48.376;10.944;2022-09-09T00:21:14;11.80;99.90
26037;DHT22;13810;48.376;10.944;2022-09-09T00:22:32;11.80;99.90
26037;DHT22;13810;48.376;10.944;2022-09-09T00:23:12;11.80;99.90
26037;DHT22;13810;48.376;10.944;2022-09-09T00:23:49;11.80;99.90
26037;DHT22;13810;48.376;10.944;2022-09-09T00:24:32;11.80;99.90
26037;DHT22;13810;48.376;10.944;2022-09-09T00:25:15;11.80;99.90
26037;DHT22;13810;48.376;10.944;2022-09-09T00:26:56;11.70;99.90
26037;DHT22;13810;48.376;10.944;2022-09-09T00:27:41;11.70;99.90
26037;DHT22;13810;48.376;10.944;2022-09-09T00:28:20;11.70;99.90
26037;DHT22;13810;48.376;10.944;2022-09-09T00:30:19;11.70;99.90
26037;DHT22;13810;48.376;10.944;2022-09-09T00:30:52;11.70;99.90
26037;DHT22;13810;48.376;10.944;2022-09-09T00:31:29;11.70;99.90
26037;DHT22;13810;48.376;10.944;2022-09-09T00:32:18;11.70;99.90
26037;DHT22;13810;48.376;10.944;2022-09-09T00:32:53;11.70;99.90
26037;DHT22;13810;48.376;10.944;2022-09-09T00:33:24;11.70;99.90
26037;DHT22;13810;48.376;10.944;2022-09-09T00:34:21;11.70;99.90
26037;DHT22;13810;48.376;10.944;2022-09-09T00:34:56;11.70;99.90
26037;DHT22;13810;48.376;10.944;2022-09-09T00:35:35;11.70;99.90
26037;DHT22;13810;48.376;10.944;2022-09-09T00:36:14;11.70;99.90
26037;DHT22;13810;48.376;10.944;2022-09-09T00:36:51;11.70;99.90
26037;DHT22;13810;48.376;10.944;2022-09-09T00:37:24;11.70;99.90
26037;DHT22;13810;48.376;10.944;2022-09-09T00:38:00;11.70;99.90
26037;DHT22;13810;48.376;10.944;2022-09-09T00:38:44;11.70;99.90
26037;DHT22;13810;48.376;10.944;2022-09-09T00:39:41;11.70;99.90
26037;DHT22;13810;48.376;10.944;2022-09-09T00:40:27;11.70;99.90
26037;DHT22;13810;48.376;10.944;2022-09-09T00:41:14;11.70;99.90
26037;DHT22;13810;48.376;10.944;2022-09-09T00:42:25;11.70;99.90
26037;DHT22;13810;48.376;10.944;2022-09-09T00:43:28;11.70;99.90
26037;DHT22;13810;48.376;10.944;2022-09-09T00:47:43;11.80;99.90
26037;DHT22;13810;48.376;10.944;2022-09-09T00:48:15;11.80;99.90
26037;DHT22;13810;48.376;10.944;2022-09-09T00:52:20;11.90;99.90
26037;DHT22;13810;48.376;10.944;2022-09-09T00:55:48;11.90;99.90
26037;DHT22;13810;48.376;10.944;2022-09-09T00:56:22;11.90;99.90
26037;DHT22;13810;48.376;10.944;2022-09-09T00:57:35;11.90;99.90
26037;DHT22;13810;48.376;10.944;2022-09-09T00:58:07;11.90;99.90
26037;DHT22;13810;48.376;10.944;2022-09-09T00:58:38;11.90;99.90
26037;DHT22;13810;48.376;10.944;2022-09-09T00:59:45;11.90;99.90
26037;DHT22;13810;48.376;10.944;2022-09-09T01:01:03;11.80;99.90
26037;DHT22;13810;48.376;10.944;2022-09-09T01:01:37;11.80;99.90
26037;DHT22;13810;48.376;10.944;2022-09-09T01:02:30;11.90;99.90
26037;DHT22;13810;48.376;10.944;2022-09-09T01:03:18;11.90;99.90
26037;DHT22;13810;48.376;10.944;2022-09-09T01:03:56;11.90;99.90
26037;DHT22;13810;48.376;10.944;2022-09-09T01:04:33;11.90;99.90
26037;DHT22;13810;48.376;10.944;2022-09-09T01:06:31;11.90;99.90
26037;DHT22;13810;48.376;10.944;2022-09-09T01:08:09;11.90;99.90
26037;DHT22;13810;48.376;10.944;2022-09-09T01:09:00;11.90;99.90
26037;DHT22;13810;48.376;10.944;2022-09-09T01:09:45;11.90;99.90
26037;DHT22;13810;48.376;10.944;2022-09-09T01:10:36;11.90;99.90
26037;DHT22;13810;48.376;10.944;2022-09-09T01:11:16;11.90;99.90
26037;DHT22;13810;48.376;10.944;2022-09-09T01:12:42;11.90;99.90
26037;DHT22;13810;48.376;10.944;2022-09-09T01:13:22;11.90;99.90
26037;DHT22;13810;48.376;10.944;2022-09-09T01:14:52;11.90;99.90
26037;DHT22;13810;48.376;10.944;2022-09-09T01:15:27;11.90;99.90
26037;DHT22;13810;48.376;10.944;2022-09-09T01:16:01;11.90;99.90
26037;DHT22;13810;48.376;10.944;2022-09-09T01:16:33;11.90;99.90
26037;DHT22;13810;48.376;10.944;2022-09-09T01:17:10;11.90;99.90
26037;DHT22;13810;48.376;10.944;2022-09-09T01:18:41;11.90;99.90
26037;DHT22;13810;48.376;10.944;2022-09-09T01:19:20;11.90;99.90
26037;DHT22;13810;48.376;10.944;2022-09-09T01:21:01;11.90;99.90
26037;DHT22;13810;48.376;10.944;2022-09-09T01:21:48;11.90;99.90
26037;DHT22;13810;48.376;10.944;2022-09-09T01:23:34;11.90;99.90
26037;DHT22;13810;48.376;10.944;2022-09-09T01:24:27;11.90;99.90
26037;DHT22;13810;48.376;10.944;2022-09-09T01:25:21;11.90;99.90
26037;DHT22;13810;48.376;10.944;2022-09-09T01:27:01;12.00;99.90
26037;DHT22;13810;48.376;10.944;2022-09-09T01:27:33;12.00;99.90
26037;DHT22;13810;48.376;10.944;2022-09-09T01:28:09;12.00;99.90
26037;DHT22;13810;48.376;10.944;2022-09-09T01:28:43;12.00;99.90
26037;DHT22;13810;48.376;10.944;2022-09-09T01:29:16;12.00;99.90
26037;DHT22;13810;48.376;10.944;2022-09-09T01:29:47;12.00;99.90
26037;DHT22;13810;48.376;10.944;2022-09-09T01:30:18;12.00;99.90
26037;DHT22;13810;48.376;10.944;2022-09-09T01:30:49;12.00;99.90
26037;DHT22;13810;48.376;10.944;2022-09-09T01:31:31;12.00;99.90
26037;DHT22;13810;48.376;10.944;2022-09-09T01:32:42;12.00;99.90
26037;DHT22;13810;48.376;10.944;2022-09-09T01:33:16;12.00;99.90
26037;DHT22;13810;48.376;10.944;2022-09-09T01:33:47;12.10;99.90
26037;DHT22;13810;48.376;10.944;2022-09-09T01:34:18;12.00;99.90
26037;DHT22;13810;48.376;10.944;2022-09-09T01:34:50;12.00;99.90
26037;DHT22;13810;48.376;10.944;2022-09-09T01:35:42;12.00;99.90
26037;DHT22;13810;48.376;10.944;2022-09-09T01:36:18;12.00;99.90
26037;DHT22;13810;48.376;10.944;2022-09-09T01:37:02;12.10;99.90
26037;DHT22;13810;48.376;10.944;2022-09-09T01:37:33;12.10;99.90
26037;DHT22;13810;48.376;10.944;2022-09-09T01:38:04;12.10;99.90
26037;DHT22;13810;48.376;10.944;2022-09-09T01:38:35;12.10;99.90
26037;DHT22;13810;48.376;10.944;2022-09-09T01:39:06;12.10;99.90
26037;DHT22;13810;48.376;10.944;2022-09-09T01:39:40;12.10;99.90
26037;DHT22;13810;48.376;10.944;2022-09-09T01:40:12;12.10;99.90
26037;DHT22;13810;48.376;10.944;2022-09-09T01:40:42;12.10;99.90
26037;DHT22;13810;48.376;10.944;2022-09-09T01:41:13;12.10;99.90
26037;DHT22;13810;48.376;10.944;2022-09-09T01:41:44;12.10;99.90
26037;DHT22;13810;48.376;10.944;2022-09-09T01:42:16;12.10;99.90
26037;DHT22;13810;48.376;10.944;2022-09-09T01:42:46;12.10;99.90
26037;DHT22;13810;48.376;10.944;2022-09-09T01:43:21;12.10;99.90
26037;DHT22;13810;48.376;10.944;2022-09-09T01:43:54;12.10;99.90
26037;DHT22;13810;48.376;10.944;2022-09-09T01:44:25;12.10;99.90
26037;DHT22;13810;48.376;10.944;2022-09-09T01:44:57;12.10;99.90
26037;DHT22;13810;48.376;10.944;2022-09-09T01:45:28;12.10;99.90
26037;DHT22;13810;48.376;10.944;2022-09-09T01:46:01;12.10;99.90
26037;DHT22;13810;48.376;10.944;2022-09-09T01:46:32;12.20;99.90
26037;DHT22;13810;48.376;10.944;2022-09-09T01:47:03;12.10;99.90
26037;DHT22;13810;48.376;10.944;2022-09-09T01:47:35;12.10;99.90
26037;DHT22;13810;48.376;10.944;2022-09-09T01:48:06;12.10;99.90
26037;DHT22;13810;48.376;10.944;2022-09-09T01:48:36;12.20;99.90
26037;DHT22;13810;48.376;10.944;2022-09-09T01:49:08;12.10;99.90
26037;DHT22;13810;48.376;10.944;2022-09-09T01:49:39;12.10;99.90
26037;DHT22;13810;48.376;10.944;2022-09-09T01:50:10;12.10;99.90
26037;DHT22;13810;48.376;10.944;2022-09-09T01:50:43;12.10;99.90
26037;DHT22;13810;48.376;10.944;2022-09-09T01:51:13;12.10;99.90
26037;DHT22;13810;48.376;10.944;2022-09-09T01:51:49;12.10;99.90
26037;DHT22;13810;48.376;10.944;2022-09-09T01:52:20;12.10;99.90
26037;DHT22;13810;48.376;10.944;2022-09-09T01:52:56;12.10;99.90
26037;DHT22;13810;48.376;10.944;2022-09-09T01:53:27;12.10;99.90
26037;DHT22;13810;48.376;10.944;2022-09-09T01:53:58;12.10;99.90
26037;DHT22;13810;48.376;10.944;2022-09-09T01:54:31;12.10;99.90
26037;DHT22;13810;48.376;10.944;2022-09-09T01:55:04;12.10;99.90
26037;DHT22;13810;48.376;10.944;2022-09-09T01:55:40;12.10;99.90
26037;DHT22;13810;48.376;10.944;2022-09-09T01:56:40;12.10;99.90
26037;DHT22;13810;48.376;10.944;2022-09-09T01:57:25;12.10;99.90
26037;DHT22;13810;48.376;10.944;2022-09-09T02:00:04;12.10;99.90
26037;DHT22;13810;48.376;10.944;2022-09-09T02:00:53;12.10;99.90
26037;DHT22;13810;48.376;10.944;2022-09-09T02:03:57;12.10;99.90
26037;DHT22;13810;48.376;10.944;2022-09-09T02:04:49;12.00;99.90
26037;DHT22;13810;48.376;10.944;2022-09-09T02:06:55;12.10;99.90
26037;DHT22;13810;48.376;10.944;2022-09-09T02:07:39;12.00;99.90
26037;DHT22;13810;48.376;10.944;2022-09-09T02:08:45;12.00;99.90
26037;DHT22;13810;48.376;10.944;2022-09-09T02:09:19;12.00;99.90
26037;DHT22;13810;48.376;10.944;2022-09-09T02:10:45;12.00;99.90
26037;DHT22;13810;48.376;10.944;2022-09-09T02:11:19;12.00;99.90
26037;DHT22;13810;48.376;10.944;2022-09-09T02:12:05;12.00;99.90
26037;DHT22;13810;48.376;10.944;2022-09-09T02:12:43;12.00;99.90
26037;DHT22;13810;48.376;10.944;2022-09-09T02:13:17;12.00;99.90
26037;DHT22;13810;48.376;10.944;2022-09-09T02:13:52;12.00;99.90
26037;DHT22;13810;48.376;10.944;2022-09-09T02:14:26;12.00;99.90
26037;DHT22;13810;48.376;10.944;2022-09-09T02:15:10;12.00;99.90
26037;DHT22;13810;48.376;10.944;2022-09-09T02:15:57;11.90;99.90
26037;DHT22;13810;48.376;10.944;2022-09-09T02:17:10;11.90;99.90
26037;DHT22;13810;48.376;10.944;2022-09-09T02:17:41;11.90;99.90
26037;DHT22;13810;48.376;10.944;2022-09-09T02:18:14;11.90;99.90
26037;DHT22;13810;48.376;10.944;2022-09-09T02:20:13;11.90;99.90
26037;DHT22;13810;48.376;10.944;2022-09-09T02:20:45;11.90;99.90
26037;DHT22;13810;48.376;10.944;2022-09-09T02:21:17;11.90;99.90
26037;DHT22;13810;48.376;10.944;2022-09-09T02:21:48;11.80;99.90
26037;DHT22;13810;48.376;10.944;2022-09-09T02:22:22;11.80;99.90
26037;DHT22;13810;48.376;10.944;2022-09-09T02:22:55;11.80;99.90
26037;DHT22;13810;48.376;10.944;2022-09-09T02:23:26;11.80;99.90
26037;DHT22;13810;48.376;10.944;2022-09-09T02:23:59;11.80;99.90
26037;DHT22;13810;48.376;10.944;2022-09-09T02:24:37;11.80;99.90
26037;DHT22;13810;48.376;10.944;2022-09-09T02:25:11;11.70;99.90
26037;DHT22;13810;48.376;10.944;2022-09-09T02:25:43;11.70;99.90
26037;DHT22;13810;48.376;10.944;2022-09-09T02:26:16;11.70;99.90
26037;DHT22;13810;48.376;10.944;2022-09-09T02:26:53;11.70;99.90
26037;DHT22;13810;48.376;10.944;2022-09-09T02:27:26;11.80;99.90
26037;DHT22;13810;48.376;10.944;2022-09-09T02:27:57;11.70;99.90
26037;DHT22;13810;48.376;10.944;2022-09-09T02:28:31;11.70;99.90
26037;DHT22;13810;48.376;10.944;2022-09-09T02:29:05;11.80;99.90
26037;DHT22;13810;48.376;10.944;2022-09-09T02:29:42;11.70;99.90
26037;DHT22;13810;48.376;10.944;2022-09-09T02:30:15;11.70;99.90
26037;DHT22;13810;48.376;10.944;2022-09-09T02:30:47;11.70;99.90
26037;DHT22;13810;48.376;10.944;2022-09-09T02:31:25;11.70;99.90
26037;DHT22;13810;48.376;10.944;2022-09-09T02:31:58;11.80;99.90
26037;DHT22;13810;48.376;10.944;2022-09-09T02:32:34;11.80;99.90
26037;DHT22;13810;48.376;10.944;2022-09-09T02:33:07;11.80;99.90
26037;DHT22;13810;48.376;10.944;2022-09-09T02:33:46;11.80;99.90
26037;DHT22;13810;48.376;10.944;2022-09-09T02:34:20;11.80;99.90
26037;DHT22;13810;48.376;10.944;2022-09-09T02:34:58;11.80;99.90
26037;DHT22;13810;48.376;10.944;2022-09-09T02:35:31;11.80;99.90
26037;DHT22;13810;48.376;10.944;2022-09-09T02:36:03;11.70;99.90
26037;DHT22;13810;48.376;10.944;2022-09-09T02:36:38;11.80;99.90
26037;DHT22;13810;48.376;10.944;2022-09-09T02:37:11;11.80;99.90
26037;DHT22;13810;48.376;10.944;2022-09-09T02:37:45;11.80;99.90
26037;DHT22;13810;48.376;10.944;2022-09-09T02:38:20;11.80;99.90
26037;DHT22;13810;48.376;10.944;2022-09-09T02:38:52;11.80;99.90
26037;DHT22;13810;48.376;10.944;2022-09-09T02:39:24;11.80;99.90
26037;DHT22;13810;48.376;10.944;2022-09-09T02:39:55;11.80;99.90
26037;DHT22;13810;48.376;10.944;2022-09-09T02:40:25;11.80;99.90
26037;DHT22;13810;48.376;10.944;2022-09-09T02:40:56;11.80;99.90
26037;DHT22;13810;48.376;10.944;2022-09-09T02:41:36;11.80;99.90
26037;DHT22;13810;48.376;10.944;2022-09-09T02:42:07;11.80;99.90
26037;DHT22;13810;48.376;10.944;2022-09-09T02:42:43;11.80;99.90
26037;DHT22;13810;48.376;10.944;2022-09-09T02:43:15;11.80;99.90
26037;DHT22;13810;48.376;10.944;2022-09-09T02:43:46;11.80;99.90
26037;DHT22;13810;48.376;10.944;2022-09-09T02:44:18;11.80;99.90
26037;DHT22;13810;48.376;10.944;2022-09-09T02:44:49;11.80;99.90
26037;DHT22;13810;48.376;10.944;2022-09-09T02:45:24;11.80;99.90
26037;DHT22;13810;48.376;10.944;2022-09-09T02:47:44;11.80;99.90
26037;DHT22;13810;48.376;10.944;2022-09-09T02:49:00;11.80;99.90
26037;DHT22;13810;48.376;10.944;2022-09-09T02:49:43;11.80;99.90
26037;DHT22;13810;48.376;10.944;2022-09-09T02:52:18;11.80;99.90
26037;DHT22;13810;48.376;10.944;2022-09-09T02:53:21;11.80;99.90
26037;DHT22;13810;48.376;10.944;2022-09-09T02:54:16;11.70;99.90
26037;DHT22;13810;48.376;10.944;2022-09-09T02:54:57;11.70;99.90
26037;DHT22;13810;48.376;10.944;2022-09-09T02:55:46;11.70;99.90
26037;DHT22;13810;48.376;10.944;2022-09-09T02:56:19;11.70;99.90
26037;DHT22;13810;48.376;10.944;2022-09-09T02:56:53;11.70;99.90
26037;DHT22;13810;48.376;10.944;2022-09-09T02:57:28;11.70;99.90
26037;DHT22;13810;48.376;10.944;2022-09-09T02:58:02;11.70;99.90
26037;DHT22;13810;48.376;10.944;2022-09-09T02:58:36;11.70;99.90
26037;DHT22;13810;48.376;10.944;2022-09-09T02:59:07;11.60;99.90
26037;DHT22;13810;48.376;10.944;2022-09-09T02:59:39;11.60;99.90
26037;DHT22;13810;48.376;10.944;2022-09-09T03:00:10;11.60;99.90
26037;DHT22;13810;48.376;10.944;2022-09-09T03:00:42;11.60;99.90
26037;DHT22;13810;48.376;10.944;2022-09-09T03:01:13;11.60;99.90
26037;DHT22;13810;48.376;10.944;2022-09-09T03:01:47;11.60;99.90
26037;DHT22;13810;48.376;10.944;2022-09-09T03:02:17;11.60;99.90
26037;DHT22;13810;48.376;10.944;2022-09-09T03:02:49;11.60;99.90
26037;DHT22;13810;48.376;10.944;2022-09-09T03:03:22;11.60;99.90
26037;DHT22;13810;48.376;10.944;2022-09-09T03:03:53;11.60;99.90
26037;DHT22;13810;48.376;10.944;2022-09-09T03:04:25;11.50;99.90
26037;DHT22;13810;48.376;10.944;2022-09-09T03:04:56;11.50;99.90
26037;DHT22;13810;48.376;10.944;2022-09-09T03:05:26;11.50;99.90
26037;DHT22;13810;48.376;10.944;2022-09-09T03:05:58;11.50;99.90
26037;DHT22;13810;48.376;10.944;2022-09-09T03:06:29;11.50;99.90
26037;DHT22;13810;48.376;10.944;2022-09-09T03:07:00;11.50;99.90
26037;DHT22;13810;48.376;10.944;2022-09-09T03:07:31;11.50;99.90
26037;DHT22;13810;48.376;10.944;2022-09-09T03:08:03;11.50;99.90
26037;DHT22;13810;48.376;10.944;2022-09-09T03:08:34;11.50;99.90
26037;DHT22;13810;48.376;10.944;2022-09-09T03:09:04;11.50;99.90
26037;DHT22;13810;48.376;10.944;2022-09-09T03:09:35;11.50;99.90
26037;DHT22;13810;48.376;10.944;2022-09-09T03:10:06;11.50;99.90
26037;DHT22;13810;48.376;10.944;2022-09-09T03:10:38;11.50;99.90
26037;DHT22;13810;48.376;10.944;2022-09-09T03:11:09;11.50;99.90
26037;DHT22;13810;48.376;10.944;2022-09-09T03:11:40;11.50;99.90
26037;DHT22;13810;48.376;10.944;2022-09-09T03:12:11;11.50;99.90
26037;DHT22;13810;48.376;10.944;2022-09-09T03:12:42;11.40;99.90
26037;DHT22;13810;48.376;10.944;2022-09-09T03:13:12;11.40;99.90
26037;DHT22;13810;48.376;10.944;2022-09-09T03:13:45;11.40;99.90
26037;DHT22;13810;48.376;10.944;2022-09-09T03:14:16;11.40;99.90
26037;DHT22;13810;48.376;10.944;2022-09-09T03:14:47;11.40;99.90
26037;DHT22;13810;48.376;10.944;2022-09-09T03:15:17;11.40;99.90
26037;DHT22;13810;48.376;10.944;2022-09-09T03:15:48;11.40;99.90
26037;DHT22;13810;48.376;10.944;2022-09-09T03:16:19;11.40;99.90
26037;DHT22;13810;48.376;10.944;2022-09-09T03:16:53;11.40;99.90
26037;DHT22;13810;48.376;10.944;2022-09-09T03:17:24;11.40;99.90
26037;DHT22;13810;48.376;10.944;2022-09-09T03:17:55;11.40;99.90
26037;DHT22;13810;48.376;10.944;2022-09-09T03:18:27;11.40;99.90
26037;DHT22;13810;48.376;10.944;2022-09-09T03:18:58;11.40;99.90
26037;DHT22;13810;48.376;10.944;2022-09-09T03:19:29;11.40;99.90
26037;DHT22;13810;48.376;10.944;2022-09-09T03:20:01;11.30;99.90
26037;DHT22;13810;48.376;10.944;2022-09-09T03:20:31;11.40;99.90
26037;DHT22;13810;48.376;10.944;2022-09-09T03:21:02;11.40;99.90
26037;DHT22;13810;48.376;10.944;2022-09-09T03:21:33;11.40;99.90
26037;DHT22;13810;48.376;10.944;2022-09-09T03:22:04;11.30;99.90
26037;DHT22;13810;48.376;10.944;2022-09-09T03:22:35;11.40;99.90
26037;DHT22;13810;48.376;10.944;2022-09-09T03:23:05;11.30;99.90
26037;DHT22;13810;48.376;10.944;2022-09-09T03:23:36;11.30;99.90
26037;DHT22;13810;48.376;10.944;2022-09-09T03:24:07;11.30;99.90
26037;DHT22;13810;48.376;10.944;2022-09-09T03:24:37;11.30;99.90
26037;DHT22;13810;48.376;10.944;2022-09-09T03:25:08;11.30;99.90
26037;DHT22;13810;48.376;10.944;2022-09-09T03:25:39;11.30;99.90
26037;DHT22;13810;48.376;10.944;2022-09-09T03:26:16;11.30;99.90
26037;DHT22;13810;48.376;10.944;2022-09-09T03:26:47;11.30;99.90
26037;DHT22;13810;48.376;10.944;2022-09-09T03:27:18;11.30;99.90
26037;DHT22;13810;48.376;10.944;2022-09-09T03:27:50;11.30;99.90
26037;DHT22;13810;48.376;10.944;2022-09-09T03:28:23;11.30;99.90
26037;DHT22;13810;48.376;10.944;2022-09-09T03:28:55;11.20;99.90
26037;DHT22;13810;48.376;10.944;2022-09-09T03:29:26;11.20;99.90
26037;DHT22;13810;48.376;10.944;2022-09-09T03:29:57;11.30;99.90
26037;DHT22;13810;48.376;10.944;2022-09-09T03:30:28;11.20;99.90
26037;DHT22;13810;48.376;10.944;2022-09-09T03:31:03;11.20;99.90
26037;DHT22;13810;48.376;10.944;2022-09-09T03:31:34;11.20;99.90
26037;DHT22;13810;48.376;10.944;2022-09-09T03:32:06;11.20;99.90
26037;DHT22;13810;48.376;10.944;2022-09-09T03:32:37;11.20;99.90
26037;DHT22;13810;48.376;10.944;2022-09-09T03:33:08;11.20;99.90
26037;DHT22;13810;48.376;10.944;2022-09-09T03:33:39;11.20;99.90
26037;DHT22;13810;48.376;10.944;2022-09-09T03:34:12;11.20;99.90
26037;DHT22;13810;48.376;10.944;2022-09-09T03:34:44;11.20;99.90
26037;DHT22;13810;48.376;10.944;2022-09-09T03:35:15;11.20;99.90
26037;DHT22;13810;48.376;10.944;2022-09-09T03:35:46;11.20;99.90
26037;DHT22;13810;48.376;10.944;2022-09-09T03:36:21;11.20;99.90
26037;DHT22;13810;48.376;10.944;2022-09-09T03:36:51;11.20;99.90
26037;DHT22;13810;48.376;10.944;2022-09-09T03:37:23;11.20;99.90
26037;DHT22;13810;48.376;10.944;2022-09-09T03:37:53;11.20;99.90
26037;DHT22;13810;48.376;10.944;2022-09-09T03:38:25;11.20;99.90
26037;DHT22;13810;48.376;10.944;2022-09-09T03:38:56;11.20;99.90
26037;DHT22;13810;48.376;10.944;2022-09-09T03:39:27;11.20;99.90
26037;DHT22;13810;48.376;10.944;2022-09-09T03:39:58;11.20;99.90
26037;DHT22;13810;48.376;10.944;2022-09-09T03:40:30;11.20;99.90
26037;DHT22;13810;48.376;10.944;2022-09-09T03:41:01;11.20;99.90
26037;DHT22;13810;48.376;10.944;2022-09-09T03:41:32;11.20;99.90
26037;DHT22;13810;48.376;10.944;2022-09-09T03:42:04;11.20;99.90
26037;DHT22;13810;48.376;10.944;2022-09-09T03:42:37;11.20;99.90
26037;DHT22;13810;48.376;10.944;2022-09-09T03:43:07;11.20;99.90
26037;DHT22;13810;48.376;10.944;2022-09-09T03:43:38;11.20;99.90
26037;DHT22;13810;48.376;10.944;2022-09-09T03:44:09;11.20;99.90
26037;DHT22;13810;48.376;10.944;2022-09-09T03:44:40;11.20;99.90
26037;DHT22;13810;48.376;10.944;2022-09-09T03:45:12;11.20;99.90
26037;DHT22;13810;48.376;10.944;2022-09-09T03:45:46;11.20;99.90
26037;DHT22;13810;48.376;10.944;2022-09-09T03:46:24;11.20;99.90
26037;DHT22;13810;48.376;10.944;2022-09-09T03:46:55;11.20;99.90
26037;DHT22;13810;48.376;10.944;2022-09-09T03:47:26;11.20;99.90
26037;DHT22;13810;48.376;10.944;2022-09-09T03:47:56;11.20;99.90
26037;DHT22;13810;48.376;10.944;2022-09-09T03:48:27;11.20;99.90
26037;DHT22;13810;48.376;10.944;2022-09-09T03:48:58;11.20;99.90
26037;DHT22;13810;48.376;10.944;2022-09-09T03:49:29;11.20;99.90
26037;DHT22;13810;48.376;10.944;2022-09-09T03:49:59;11.20;99.90
26037;DHT22;13810;48.376;10.944;2022-09-09T03:50:30;11.20;99.90
26037;DHT22;13810;48.376;10.944;2022-09-09T03:51:02;11.20;99.90
26037;DHT22;13810;48.376;10.944;2022-09-09T04:03:06;11.10;99.90
26037;DHT22;13810;48.376;10.944;2022-09-09T04:03:36;11.10;99.90
26037;DHT22;13810;48.376;10.944;2022-09-09T04:04:07;11.10;99.90
26037;DHT22;13810;48.376;10.944;2022-09-09T04:04:39;11.10;99.90
26037;DHT22;13810;48.376;10.944;2022-09-09T04:05:10;11.10;99.90
26037;DHT22;13810;48.376;10.944;2022-09-09T04:05:40;11.20;99.90
26037;DHT22;13810;48.376;10.944;2022-09-09T04:06:13;11.10;99.90
26037;DHT22;13810;48.376;10.944;2022-09-09T04:06:45;11.10;99.90
26037;DHT22;13810;48.376;10.944;2022-09-09T04:07:16;11.10;99.90
26037;DHT22;13810;48.376;10.944;2022-09-09T04:07:47;11.10;99.90
26037;DHT22;13810;48.376;10.944;2022-09-09T04:08:18;11.10;99.90
26037;DHT22;13810;48.376;10.944;2022-09-09T04:08:49;11.10;99.90
26037;DHT22;13810;48.376;10.944;2022-09-09T04:09:21;11.10;99.90
26037;DHT22;13810;48.376;10.944;2022-09-09T04:09:51;11.10;99.90
26037;DHT22;13810;48.376;10.944;2022-09-09T04:10:22;11.10;99.90
26037;DHT22;13810;48.376;10.944;2022-09-09T04:10:54;11.10;99.90
26037;DHT22;13810;48.376;10.944;2022-09-09T04:11:28;11.00;99.90
26037;DHT22;13810;48.376;10.944;2022-09-09T04:11:59;11.00;99.90
26037;DHT22;13810;48.376;10.944;2022-09-09T04:12:29;11.00;99.90
26037;DHT22;13810;48.376;10.944;2022-09-09T04:13:00;11.00;99.90
26037;DHT22;13810;48.376;10.944;2022-09-09T04:13:31;11.10;99.90
26037;DHT22;13810;48.376;10.944;2022-09-09T04:14:02;11.10;99.90
26037;DHT22;13810;48.376;10.944;2022-09-09T04:14:33;11.10;99.90
26037;DHT22;13810;48.376;10.944;2022-09-09T04:15:03;11.10;99.90
26037;DHT22;13810;48.376;10.944;2022-09-09T04:15:34;11.10;99.90
26037;DHT22;13810;48.376;10.944;2022-09-09T04:16:06;11.10;99.90
26037;DHT22;13810;48.376;10.944;2022-09-09T04:16:37;11.10;99.90
26037;DHT22;13810;48.376;10.944;2022-09-09T04:17:07;11.10;99.90
26037;DHT22;13810;48.376;10.944;2022-09-09T04:17:38;11.10;99.90
26037;DHT22;13810;48.376;10.944;2022-09-09T04:18:09;11.20;99.90
26037;DHT22;13810;48.376;10.944;2022-09-09T04:18:40;11.20;99.90
26037;DHT22;13810;48.376;10.944;2022-09-09T04:19:12;11.20;99.90
26037;DHT22;13810;48.376;10.944;2022-09-09T04:19:44;11.20;99.90
26037;DHT22;13810;48.376;10.944;2022-09-09T04:20:14;11.20;99.90
26037;DHT22;13810;48.376;10.944;2022-09-09T04:20:49;11.30;99.90
26037;DHT22;13810;48.376;10.944;2022-09-09T04:21:20;11.30;99.90
26037;DHT22;13810;48.376;10.944;2022-09-09T04:21:51;11.30;99.90
26037;DHT22;13810;48.376;10.944;2022-09-09T04:22:22;11.30;99.90
26037;DHT22;13810;48.376;10.944;2022-09-09T04:22:53;11.30;99.90
26037;DHT22;13810;48.376;10.944;2022-09-09T04:23:25;11.30;99.90
26037;DHT22;13810;48.376;10.944;2022-09-09T04:23:56;11.30;99.90
26037;DHT22;13810;48.376;10.944;2022-09-09T04:24:27;11.30;99.90
26037;DHT22;13810;48.376;10.944;2022-09-09T04:24:59;11.30;99.90
26037;DHT22;13810;48.376;10.944;2022-09-09T04:25:30;11.30;99.90
26037;DHT22;13810;48.376;10.944;2022-09-09T04:26:02;11.30;99.90
26037;DHT22;13810;48.376;10.944;2022-09-09T04:26:33;11.40;99.90
26037;DHT22;13810;48.376;10.944;2022-09-09T04:27:04;11.40;99.90
26037;DHT22;13810;48.376;10.944;2022-09-09T04:27:35;11.40;99.90
26037;DHT22;13810;48.376;10.944;2022-09-09T04:28:05;11.40;99.90
26037;DHT22;13810;48.376;10.944;2022-09-09T04:28:36;11.40;99.90
26037;DHT22;13810;48.376;10.944;2022-09-09T04:29:07;11.40;99.90
26037;DHT22;13810;48.376;10.944;2022-09-09T04:29:38;11.40;99.90
26037;DHT22;13810;48.376;10.944;2022-09-09T04:30:09;11.40;99.90
26037;DHT22;13810;48.376;10.944;2022-09-09T04:30:41;11.50;99.90
26037;DHT22;13810;48.376;10.944;2022-09-09T04:31:30;11.50;99.90